createdAt,value
2022-08-07T00:03:05.422Z,19.31
2022-08-07T00:08:10.002Z,19.37
2022-08-07T00:13:24.074Z,19.30
2022-08-07T00:18:29.025Z,19.19
2022-08-07T00:23:32.445Z,19.13
2022-08-07T00:28:34.755Z,19.12
2022-08-07T00:33:47.652Z,18.96
2022-08-07T00:38:49.274Z,19.00
2022-08-07T00:44:01.433Z,18.95
2022-08-07T00:49:04.472Z,18.97
2022-08-07T00:54:05.963Z,18.95
2022-08-07T00:59:07.594Z,18.92
2022-08-07T01:04:09.226Z,18.96
2022-08-07T01:09:12.139Z,19.00
2022-08-07T01:14:36.928Z,19.01
2022-08-07T01:19:39.971Z,18.95
2022-08-07T01:24:47.534Z,18.73
2022-08-07T01:29:50.631Z,18.73
2022-08-07T01:34:52.672Z,18.75
2022-08-07T01:39:54.601Z,18.43
2022-08-07T01:44:59.097Z,18.50
2022-08-07T01:50:01.717Z,18.49
2022-08-07T01:55:04.952Z,18.42
2022-08-07T02:00:13.070Z,18.42
2022-08-07T02:05:43.055Z,18.37
2022-08-07T02:10:42.821Z,18.17
2022-08-07T02:15:44.901Z,18.06
2022-08-07T02:20:51.963Z,17.98
2022-08-07T02:26:26.679Z,18.08
2022-08-07T02:31:29.244Z,18.00
2022-08-07T02:36:33.707Z,17.94
2022-08-07T02:41:37.460Z,17.62
2022-08-07T02:46:46.609Z,17.51
2022-08-07T02:51:52.234Z,17.47
2022-08-07T02:56:55.960Z,17.40
2022-08-07T03:01:58.108Z,17.43
2022-08-07T03:07:07.264Z,17.41
2022-08-07T03:12:21.981Z,17.33
2022-08-07T03:17:25.998Z,17.25
2022-08-07T03:22:29.557Z,17.42
2022-08-07T03:27:58.774Z,17.55
2022-08-07T03:32:59.221Z,17.45
2022-08-07T03:38:04.773Z,17.49
2022-08-07T03:43:13.687Z,17.48
2022-08-07T03:48:16.400Z,17.14
2022-08-07T03:53:17.736Z,17.22
2022-08-07T03:59:04.805Z,17.36
2022-08-07T04:03:49.629Z,17.32
2022-08-07T04:08:56.059Z,17.31
2022-08-07T04:14:10.681Z,17.30
2022-08-07T04:19:21.245Z,17.24
2022-08-07T04:24:43.011Z,17.20
2022-08-07T04:29:58.371Z,17.05
2022-08-07T04:35:01.916Z,17.13
2022-08-07T04:40:06.021Z,16.95
2022-08-07T04:45:08.543Z,17.03
2022-08-07T04:50:14.518Z,17.08
2022-08-07T04:58:10.441Z,16.92
2022-08-07T05:01:30.772Z,17.06
2022-08-07T05:06:43.513Z,17.11
2022-08-07T05:11:57.348Z,17.07
2022-08-07T05:17:11.936Z,16.85
2022-08-07T05:22:26.771Z,17.05
2022-08-07T05:28:02.770Z,17.22
2022-08-07T05:32:54.262Z,17.39
2022-08-07T05:38:09.116Z,17.45
2022-08-07T05:43:11.630Z,17.27
2022-08-07T05:48:15.256Z,17.37
2022-08-07T05:54:13.344Z,17.48
2022-08-07T05:58:41.024Z,17.70
2022-08-07T06:03:58.507Z,17.91
2022-08-07T06:09:04.652Z,18.15
2022-08-07T06:14:12.292Z,18.35
2022-08-07T06:19:58.063Z,18.41
2022-08-07T06:24:57.716Z,18.57
2022-08-07T06:30:00.817Z,18.69
2022-08-07T06:35:02.519Z,18.81
2022-08-07T06:40:20.613Z,19.01
2022-08-07T06:45:24.828Z,19.25
2022-08-07T06:50:27.580Z,19.39
2022-08-07T06:55:47.690Z,19.55
2022-08-07T07:00:56.011Z,19.73
2022-08-07T07:06:02.462Z,19.95
2022-08-07T07:11:13.560Z,20.07
2022-08-07T07:16:34.362Z,20.28
2022-08-07T07:22:05.289Z,20.38
2022-08-07T07:27:10.696Z,20.63
2022-08-07T07:32:14.562Z,20.84
2022-08-07T07:37:44.286Z,21.15
2022-08-07T07:42:41.101Z,21.24
2022-08-07T07:47:52.560Z,21.42
2022-08-07T07:52:56.642Z,21.68
2022-08-07T07:57:58.667Z,21.96
2022-08-07T08:03:08.461Z,22.12
2022-08-07T08:08:32.395Z,22.35
2022-08-07T08:13:36.813Z,22.53
2022-08-07T08:18:57.241Z,22.80
2022-08-07T08:24:18.776Z,22.95
2022-08-07T08:29:55.533Z,22.86
2022-08-07T08:34:58.632Z,23.31
2022-08-07T08:40:01.810Z,23.33
2022-08-07T08:45:13.188Z,23.58
2022-08-07T08:50:34.899Z,23.91
2022-08-07T08:55:58.478Z,24.05
2022-08-07T09:01:14.595Z,23.91
2022-08-07T09:06:40.403Z,24.49
2022-08-07T09:12:19.826Z,24.89
2022-08-07T09:17:59.021Z,25.16
2022-08-07T09:24:31.401Z,25.34
2022-08-07T09:30:05.008Z,25.70
2022-08-07T09:34:22.564Z,25.84
2022-08-07T09:39:53.866Z,25.70
2022-08-07T09:47:27.561Z,26.37
2022-08-07T09:50:36.537Z,25.95
2022-08-07T09:56:33.819Z,26.82
2022-08-07T10:02:00.299Z,27.04
2022-08-07T10:07:39.718Z,27.27
2022-08-07T10:13:05.139Z,27.03
2022-08-07T10:18:49.791Z,26.61
2022-08-07T10:24:10.947Z,26.78
2022-08-07T10:29:43.253Z,27.67
2022-08-07T10:35:56.357Z,28.83
2022-08-07T10:41:51.651Z,29.84
2022-08-07T10:46:55.496Z,30.45
2022-08-07T10:52:13.661Z,31.07
2022-08-07T10:57:38.445Z,31.34
2022-08-07T11:02:53.919Z,31.26
2022-08-07T11:08:18.300Z,31.35
2022-08-07T11:14:43.555Z,31.34
2022-08-07T11:19:21.755Z,31.59
2022-08-07T11:24:48.836Z,32.43
2022-08-07T11:30:17.947Z,32.60
2022-08-07T11:35:29.971Z,31.46
2022-08-07T11:40:51.592Z,32.00
2022-08-07T11:46:27.210Z,32.22
2022-08-07T11:51:54.424Z,32.39
2022-08-07T11:58:00.426Z,32.43
2022-08-07T12:03:44.497Z,32.39
2022-08-07T12:08:56.002Z,32.56
2022-08-07T12:14:08.481Z,32.67
2022-08-07T12:19:35.956Z,31.95
2022-08-07T12:26:05.652Z,31.81
2022-08-07T12:30:46.996Z,31.70
2022-08-07T12:35:58.008Z,31.55
2022-08-07T12:41:02.582Z,31.31
2022-08-07T12:46:26.200Z,31.48
2022-08-07T12:52:11.862Z,31.52
2022-08-07T12:57:10.713Z,31.58
2022-08-07T13:02:35.667Z,31.32
2022-08-07T13:08:18.887Z,31.06
2022-08-07T13:13:47.218Z,30.65
2022-08-07T13:19:22.045Z,30.66
2022-08-07T13:24:52.522Z,30.65
2022-08-07T13:30:03.601Z,30.52
2022-08-07T13:35:11.602Z,30.12
2022-08-07T13:40:42.853Z,30.06
2022-08-07T13:46:11.533Z,29.94
2022-08-07T13:51:27.773Z,29.78
2022-08-07T13:56:36.342Z,29.57
2022-08-07T14:01:51.044Z,29.44
2022-08-07T14:07:05.863Z,29.44
2022-08-07T14:12:28.110Z,29.36
2022-08-07T14:18:13.665Z,29.25
2022-08-07T14:23:02.797Z,29.19
2022-08-07T14:28:13.387Z,29.08
2022-08-07T14:33:17.033Z,28.99
2022-08-07T14:38:31.422Z,28.82
2022-08-07T14:43:57.699Z,28.31
2022-08-07T14:49:55.915Z,28.34
2022-08-07T14:54:30.943Z,28.31
2022-08-07T15:00:05.261Z,27.99
2022-08-07T15:05:01.713Z,27.91
2022-08-07T15:15:38.903Z,27.77
2022-08-07T15:20:55.496Z,27.58
2022-08-07T15:25:59.404Z,27.55
2022-08-07T15:31:05.774Z,27.49
2022-08-07T15:36:08.553Z,27.47
2022-08-07T15:41:23.748Z,27.40
2022-08-07T15:57:00.728Z,27.26
2022-08-07T16:02:04.279Z,27.15
2022-08-07T16:08:32.327Z,27.14
2022-08-07T16:12:40.562Z,27.11
2022-08-07T16:18:14.019Z,27.05
2022-08-07T16:23:58.773Z,26.98
2022-08-07T16:30:07.581Z,26.99
2022-08-07T16:34:48.823Z,26.98
2022-08-07T16:40:23.402Z,26.93
2022-08-07T16:46:34.710Z,26.83
2022-08-07T16:51:54.111Z,26.75
2022-08-07T16:58:02.061Z,26.67
2022-08-07T17:03:17.215Z,26.61
2022-08-07T17:09:04.404Z,26.54
2022-08-07T17:14:18.691Z,26.44
2022-08-07T17:20:01.832Z,26.38
2022-08-07T17:25:15.590Z,26.29
2022-08-07T17:30:20.229Z,26.32
2022-08-07T17:35:54.713Z,26.26
2022-08-07T17:42:04.401Z,26.16
2022-08-07T17:47:06.072Z,26.07
2022-08-07T17:52:17.978Z,26.03
2022-08-07T17:57:58.560Z,25.91
2022-08-07T18:04:07.203Z,25.78
2022-08-07T18:09:16.072Z,25.71
2022-08-07T18:14:29.144Z,25.61
2022-08-07T18:21:11.946Z,25.51
2022-08-07T18:25:24.131Z,25.44
2022-08-07T18:30:43.367Z,25.28
2022-08-07T18:36:05.978Z,25.17
2022-08-07T18:41:20.742Z,25.08
2022-08-07T18:46:43.021Z,24.96
2022-08-07T18:52:35.097Z,24.86
2022-08-07T18:57:59.479Z,24.65
2022-08-07T19:03:16.114Z,24.50
2022-08-07T19:08:26.401Z,24.35
2022-08-07T19:13:50.282Z,24.31
2022-08-07T19:19:03.041Z,24.20
2022-08-07T19:24:13.369Z,24.14
2022-08-07T19:31:06.122Z,23.98
2022-08-07T19:35:14.062Z,23.94
2022-08-07T19:40:18.510Z,23.86
2022-08-07T19:46:04.698Z,23.75
2022-08-07T19:51:01.718Z,23.69
2022-08-07T19:56:13.650Z,23.61
2022-08-07T20:01:52.724Z,23.53
2022-08-07T20:06:54.789Z,23.43
2022-08-07T20:12:22.849Z,23.35
2022-08-07T20:17:21.375Z,23.31
2022-08-07T20:22:29.417Z,23.21
2022-08-07T20:27:46.047Z,23.17
2022-08-07T20:32:50.237Z,23.14
2022-08-07T20:37:58.434Z,23.09
2022-08-07T20:43:14.845Z,23.01
2022-08-07T20:48:29.570Z,23.00
2022-08-07T20:54:03.667Z,22.95
2022-08-07T20:58:58.576Z,22.81
2022-08-07T21:04:22.162Z,22.74
2022-08-07T21:09:52.096Z,22.66
2022-08-07T21:14:55.582Z,22.66
2022-08-07T21:20:05.263Z,22.58
2022-08-07T21:25:42.438Z,22.52
2022-08-07T21:31:49.276Z,22.50
2022-08-07T21:37:10.239Z,22.44
2022-08-07T21:47:56.182Z,22.33
2022-08-07T21:53:16.146Z,22.24
2022-08-07T21:58:45.959Z,22.18
2022-08-07T22:04:02.699Z,22.11
2022-08-07T22:09:12.304Z,21.99
2022-08-07T22:14:15.069Z,21.96
2022-08-07T22:19:34.829Z,21.87
2022-08-07T22:24:49.811Z,21.82
2022-08-07T22:29:58.063Z,21.69
2022-08-07T22:35:01.417Z,21.73
2022-08-07T22:40:42.997Z,21.69
2022-08-07T22:46:04.577Z,21.65
2022-08-07T22:51:53.410Z,21.47
2022-08-07T22:57:29.286Z,21.36
2022-08-07T23:02:41.536Z,21.46
2022-08-07T23:08:24.354Z,21.45
2022-08-07T23:14:15.597Z,21.29
2022-08-07T23:19:58.577Z,21.17
2022-08-07T23:25:35.487Z,21.09
2022-08-07T23:31:07.123Z,21.04
2022-08-07T23:36:43.179Z,20.96
2022-08-07T23:42:05.056Z,20.87
2022-08-07T23:47:26.213Z,20.93
2022-08-07T23:53:05.642Z,20.88
2022-08-07T23:58:18.717Z,20.85
